createdAt,value
2018-07-13T00:01:56.896Z,13.87
2018-07-13T00:04:25.397Z,11.33
2018-07-13T00:06:54.655Z,12.93
2018-07-13T00:09:23.346Z,13.10
2018-07-13T00:11:53.766Z,10.80
2018-07-13T00:14:24.709Z,13.90
2018-07-13T00:16:57.840Z,14.17
2018-07-13T00:19:26.600Z,16.37
2018-07-13T00:21:54.740Z,13.43
2018-07-13T00:24:22.789Z,12.73
2018-07-13T00:26:50.684Z,9.20
2018-07-13T00:29:18.684Z,12.60
2018-07-13T00:31:46.577Z,13.10
2018-07-13T00:34:14.532Z,9.67
2018-07-13T00:36:42.533Z,19.43
2018-07-13T00:39:11.750Z,11.17
2018-07-13T00:41:40.136Z,12.27
2018-07-13T00:44:09.117Z,8.67
2018-07-13T00:46:37.035Z,15.27
2018-07-13T00:49:04.981Z,14.77
2018-07-13T00:51:32.911Z,12.93
2018-07-13T00:54:00.834Z,13.60
2018-07-13T00:56:28.777Z,14.13
2018-07-13T00:58:56.771Z,14.77
2018-07-13T01:01:24.780Z,16.90
2018-07-13T01:03:52.931Z,11.60
2018-07-13T01:06:20.841Z,14.90
2018-07-13T01:08:48.772Z,13.07
2018-07-13T01:11:16.742Z,13.37
2018-07-13T01:13:44.667Z,16.83
2018-07-13T01:16:12.640Z,16.30
2018-07-13T01:18:40.556Z,14.73
2018-07-13T01:21:08.492Z,13.63
2018-07-13T01:23:36.429Z,13.57
2018-07-13T01:26:04.400Z,13.40
2018-07-13T01:28:32.598Z,15.40
2018-07-13T01:31:00.553Z,13.37
2018-07-13T01:33:28.508Z,11.83
2018-07-13T01:35:56.480Z,12.40
2018-07-13T01:38:24.597Z,10.70
2018-07-13T01:40:52.561Z,11.30
2018-07-13T01:43:20.526Z,14.27
2018-07-13T01:45:48.456Z,10.17
2018-07-13T01:48:16.399Z,10.33
2018-07-13T01:50:44.346Z,8.80
2018-07-13T01:53:12.297Z,10.10
2018-07-13T01:55:40.296Z,9.83
2018-07-13T01:58:08.179Z,9.87
2018-07-13T02:00:36.435Z,9.43
2018-07-13T02:03:04.391Z,11.37
2018-07-13T02:05:32.343Z,11.57
2018-07-13T02:08:00.271Z,10.90
2018-07-13T02:10:28.209Z,12.70
2018-07-13T02:12:56.233Z,11.20
2018-07-13T02:15:24.224Z,15.43
2018-07-13T02:17:52.234Z,10.30
2018-07-13T02:20:20.127Z,37.50
2018-07-13T02:22:48.073Z,15.60
2018-07-13T02:25:16.052Z,13.30
2018-07-13T02:27:43.988Z,9.80
2018-07-13T02:30:11.980Z,11.37
2018-07-13T02:32:39.966Z,10.53
2018-07-13T02:35:07.895Z,10.23
2018-07-13T02:37:35.824Z,10.40
2018-07-13T02:40:03.862Z,10.60
2018-07-13T02:42:31.687Z,14.40
2018-07-13T02:44:59.620Z,10.50
2018-07-13T02:47:27.532Z,7.87
2018-07-13T02:49:55.520Z,11.40
2018-07-13T02:52:23.493Z,15.90
2018-07-13T02:54:51.409Z,9.43
2018-07-13T02:57:19.392Z,9.07
2018-07-13T02:59:47.320Z,8.07
2018-07-13T03:02:15.268Z,8.10
2018-07-13T03:04:43.233Z,10.37
2018-07-13T03:07:11.267Z,8.90
2018-07-13T03:09:39.232Z,9.50
2018-07-13T03:12:07.208Z,7.60
2018-07-13T03:14:35.132Z,7.47
2018-07-13T03:17:03.074Z,9.43
2018-07-13T03:19:31.333Z,8.00
2018-07-13T03:21:59.295Z,9.20
2018-07-13T03:24:27.257Z,12.77
2018-07-13T03:26:55.217Z,10.90
2018-07-13T03:29:23.193Z,7.03
2018-07-13T03:31:51.128Z,11.67
2018-07-13T03:34:19.068Z,8.80
2018-07-13T03:36:46.974Z,10.10
2018-07-13T03:39:15.130Z,7.77
2018-07-13T03:41:43.089Z,11.53
2018-07-13T03:44:11.067Z,9.97
2018-07-13T03:46:39.016Z,10.27
2018-07-13T03:49:06.913Z,11.53
2018-07-13T03:51:34.874Z,12.03
2018-07-13T03:54:02.899Z,14.83
2018-07-13T03:56:30.893Z,15.23
2018-07-13T03:58:58.817Z,8.60
2018-07-13T04:01:26.784Z,11.23
2018-07-13T04:03:54.846Z,14.63
2018-07-13T04:06:22.826Z,9.80
2018-07-13T04:08:50.976Z,8.73
2018-07-13T04:11:18.916Z,8.80
2018-07-13T04:13:46.856Z,10.60
2018-07-13T04:16:14.794Z,15.40
2018-07-13T04:18:42.746Z,16.20
2018-07-13T04:21:10.741Z,12.87
2018-07-13T04:23:38.705Z,12.00
2018-07-13T04:26:06.708Z,21.30
2018-07-13T04:28:34.662Z,9.93
2018-07-13T04:31:02.589Z,12.07
2018-07-13T04:33:30.597Z,12.47
2018-07-13T04:35:58.589Z,14.33
2018-07-13T04:38:26.580Z,10.47
2018-07-13T04:40:54.663Z,11.10
2018-07-13T04:43:23.674Z,13.20
2018-07-13T04:45:51.630Z,9.10
2018-07-13T04:48:19.608Z,15.50
2018-07-13T04:50:47.666Z,11.83
2018-07-13T04:53:15.660Z,13.13
2018-07-13T04:55:43.737Z,15.77
2018-07-13T04:58:13.051Z,12.93
2018-07-13T05:00:41.104Z,14.77
2018-07-13T05:03:09.330Z,18.93
2018-07-13T05:05:37.524Z,8.97
2018-07-13T05:08:05.540Z,10.93
2018-07-13T05:10:33.463Z,14.80
2018-07-13T05:13:01.417Z,12.63
2018-07-13T05:15:29.605Z,13.67
2018-07-13T05:17:57.684Z,12.50
2018-07-13T05:20:25.918Z,10.00
2018-07-13T05:22:54.198Z,12.33
2018-07-13T05:25:22.282Z,11.07
2018-07-13T05:27:50.256Z,14.30
2018-07-13T05:30:18.616Z,12.73
2018-07-13T05:32:46.727Z,11.17
2018-07-13T05:35:14.990Z,9.70
2018-07-13T05:37:42.961Z,16.33
2018-07-13T05:40:11.256Z,20.40
2018-07-13T05:42:40.424Z,11.23
2018-07-13T05:45:08.420Z,18.43
2018-07-13T05:47:36.372Z,14.37
2018-07-13T05:50:04.667Z,14.93
2018-07-13T05:52:32.706Z,15.27
2018-07-13T05:55:00.789Z,11.70
2018-07-13T05:57:28.933Z,17.93
2018-07-13T05:59:57.080Z,16.53
2018-07-13T06:02:25.363Z,9.70
2018-07-13T06:07:27.918Z,19.80
2018-07-13T06:09:56.518Z,9.23
2018-07-13T06:12:24.863Z,11.87
2018-07-13T06:14:52.992Z,9.53
2018-07-13T06:17:20.947Z,9.27
2018-07-13T06:19:48.875Z,11.63
2018-07-13T06:22:17.263Z,9.40
2018-07-13T06:24:45.479Z,13.33
2018-07-13T06:27:13.465Z,11.83
2018-07-13T06:29:41.405Z,7.40
2018-07-13T06:32:09.366Z,9.77
2018-07-13T06:34:37.304Z,12.30
2018-07-13T06:37:05.298Z,8.20
2018-07-13T06:39:33.321Z,6.73
2018-07-13T06:42:02.080Z,7.13
2018-07-13T06:44:30.307Z,11.50
2018-07-13T06:46:58.558Z,7.77
2018-07-13T06:49:26.665Z,8.53
2018-07-13T06:51:54.973Z,9.87
2018-07-13T06:54:23.259Z,10.50
2018-07-13T06:56:51.281Z,11.00
2018-07-13T06:59:20.230Z,10.80
2018-07-13T07:01:48.560Z,7.47
2018-07-13T07:04:21.258Z,9.67
2018-07-13T07:06:49.337Z,6.33
2018-07-13T07:09:17.303Z,8.90
2018-07-13T07:11:50.884Z,11.83
2018-07-13T07:14:18.829Z,7.93
2018-07-13T07:16:46.783Z,4.77
2018-07-13T07:19:14.777Z,9.70
2018-07-13T07:21:42.702Z,6.70
2018-07-13T07:24:10.672Z,6.93
2018-07-13T07:26:38.657Z,5.00
2018-07-13T07:29:06.589Z,5.17
2018-07-13T07:31:34.641Z,9.00
2018-07-13T07:34:02.800Z,6.10
2018-07-13T07:36:30.821Z,7.00
2018-07-13T07:38:58.957Z,5.97
2018-07-13T07:41:27.102Z,7.17
2018-07-13T07:43:55.276Z,15.70
2018-07-13T07:46:23.357Z,5.37
2018-07-13T07:48:51.396Z,7.50
2018-07-13T07:53:54.670Z,5.80
2018-07-13T07:56:22.716Z,5.20
2018-07-13T07:58:50.716Z,6.00
2018-07-13T08:01:18.697Z,8.60
2018-07-13T08:03:46.640Z,6.50
2018-07-13T08:06:14.914Z,5.30
2018-07-13T08:08:42.670Z,4.63
2018-07-13T08:11:10.608Z,7.10
2018-07-13T08:13:38.588Z,6.67
2018-07-13T08:16:06.516Z,5.43
2018-07-13T08:18:34.535Z,12.03
2018-07-13T08:21:02.515Z,4.83
2018-07-13T08:23:30.601Z,5.43
2018-07-13T08:25:58.801Z,8.63
2018-07-13T08:28:27.376Z,7.57
2018-07-13T08:30:57.692Z,7.70
2018-07-13T08:33:25.925Z,5.90
2018-07-13T08:35:54.133Z,11.63
2018-07-13T08:38:22.105Z,8.73
2018-07-13T08:40:50.033Z,4.50
2018-07-13T08:43:18.208Z,10.13
2018-07-13T08:45:46.178Z,7.03
2018-07-13T08:48:14.099Z,3.33
2018-07-13T08:50:42.093Z,5.50
2018-07-13T08:53:10.045Z,7.73
2018-07-13T08:55:38.311Z,5.37
2018-07-13T08:58:06.276Z,5.30
2018-07-13T09:00:34.293Z,10.13
2018-07-13T09:03:02.251Z,5.03
2018-07-13T09:05:30.374Z,5.83
2018-07-13T09:07:58.670Z,7.47
2018-07-13T09:10:26.879Z,5.10
2018-07-13T09:12:55.036Z,4.30
2018-07-13T09:15:23.412Z,5.47
2018-07-13T09:17:51.579Z,5.33
2018-07-13T09:20:19.634Z,10.17
2018-07-13T09:22:47.551Z,7.70
2018-07-13T09:25:15.504Z,5.50
2018-07-13T09:27:43.873Z,5.73
2018-07-13T09:30:12.406Z,3.53
2018-07-13T09:32:40.885Z,8.87
2018-07-13T09:35:08.993Z,4.20
2018-07-13T09:37:37.004Z,5.50
2018-07-13T09:40:05.026Z,3.63
2018-07-13T09:42:33.187Z,4.53
2018-07-13T09:45:01.885Z,5.10
2018-07-13T09:47:29.999Z,18.83
2018-07-13T09:49:58.237Z,14.23
2018-07-13T09:52:26.555Z,9.07
2018-07-13T09:54:54.910Z,9.47
2018-07-13T09:57:23.112Z,4.47
2018-07-13T09:59:51.076Z,7.83
2018-07-13T10:02:19.071Z,9.07
2018-07-13T10:04:46.979Z,7.63
2018-07-13T10:07:14.964Z,3.40
2018-07-13T10:09:43.288Z,4.50
2018-07-13T10:12:11.439Z,4.63
2018-07-13T10:14:39.527Z,10.80
2018-07-13T10:17:07.532Z,6.97
2018-07-13T10:19:35.515Z,5.57
2018-07-13T10:22:03.497Z,3.73
2018-07-13T10:24:31.508Z,5.00
2018-07-13T10:26:59.668Z,3.83
2018-07-13T10:29:29.723Z,3.90
2018-07-13T10:31:58.211Z,3.83
2018-07-13T10:34:26.355Z,3.07
2018-07-13T10:37:03.252Z,3.47
2018-07-13T10:39:31.682Z,6.53
2018-07-13T10:42:00.088Z,5.47
2018-07-13T10:44:28.273Z,13.50
2018-07-13T10:46:56.526Z,6.57
2018-07-13T10:49:24.772Z,8.17
2018-07-13T10:51:52.930Z,6.60
2018-07-13T10:54:21.450Z,3.83
2018-07-13T10:56:49.421Z,3.07
2018-07-13T10:59:17.444Z,3.47
2018-07-13T11:01:45.693Z,4.93
2018-07-13T11:04:14.286Z,4.97
2018-07-13T11:06:42.790Z,3.23
2018-07-13T11:09:11.169Z,5.50
2018-07-13T11:11:39.121Z,8.53
2018-07-13T11:14:07.383Z,8.90
2018-07-13T11:16:35.377Z,5.53
2018-07-13T11:33:20.509Z,4.90
2018-07-13T11:35:51.314Z,3.50
2018-07-13T11:38:24.001Z,3.40
2018-07-13T11:43:37.444Z,6.50
2018-07-13T11:46:06.080Z,4.93
2018-07-13T11:51:17.694Z,2.40
2018-07-13T11:53:54.274Z,3.63
2018-07-13T11:56:23.708Z,4.97
2018-07-13T11:59:00.425Z,6.60
2018-07-13T12:04:11.138Z,4.23
2018-07-13T12:06:48.838Z,6.10
2018-07-13T12:09:17.639Z,2.73
2018-07-13T12:11:54.969Z,3.10
2018-07-13T12:14:24.176Z,3.07
2018-07-13T12:19:25.632Z,6.00
2018-07-13T12:21:56.717Z,9.83
2018-07-13T12:24:27.149Z,4.23
2018-07-13T12:26:57.444Z,19.33
2018-07-13T12:29:25.772Z,3.07
2018-07-13T12:34:38.949Z,4.53
2018-07-13T12:51:55.790Z,2.80
2018-07-13T12:54:25.036Z,5.10
2018-07-13T12:59:40.879Z,3.23
2018-07-13T13:02:09.076Z,6.10
2018-07-13T13:04:37.497Z,13.27
2018-07-13T13:07:05.958Z,12.53
2018-07-13T13:09:36.240Z,2.60
2018-07-13T13:12:04.924Z,3.10
2018-07-13T13:17:25.264Z,3.30
2018-07-13T13:19:54.156Z,4.00
2018-07-13T13:22:24.942Z,2.90
2018-07-13T13:24:53.525Z,4.30
2018-07-13T13:27:21.652Z,6.57
2018-07-13T13:29:49.880Z,5.40
2018-07-13T13:32:18.793Z,5.70
2018-07-13T13:34:47.316Z,7.23
2018-07-13T13:37:16.285Z,3.83
2018-07-13T13:39:55.206Z,2.23
2018-07-13T13:47:54.184Z,5.40
2018-07-13T13:53:07.409Z,2.53
2018-07-13T13:55:35.560Z,3.37
2018-07-13T13:58:19.323Z,3.50
2018-07-13T14:00:53.717Z,4.97
2018-07-13T14:03:21.845Z,4.17
2018-07-13T14:05:50.019Z,2.70
2018-07-13T14:08:18.578Z,2.80
2018-07-13T14:10:46.825Z,4.67
2018-07-13T14:13:17.146Z,5.80
2018-07-13T14:15:45.606Z,2.40
2018-07-13T14:18:13.846Z,3.40
2018-07-13T14:20:43.049Z,3.57
2018-07-13T14:23:12.813Z,2.97
2018-07-13T14:25:40.908Z,3.73
2018-07-13T14:28:12.317Z,4.30
2018-07-13T14:30:40.298Z,6.53
2018-07-13T14:33:13.681Z,4.50
2018-07-13T14:35:41.829Z,7.93
2018-07-13T14:38:10.074Z,2.73
2018-07-13T14:40:38.226Z,2.87
2018-07-13T14:43:06.417Z,5.43
2018-07-13T14:45:35.493Z,2.60
2018-07-13T14:48:06.648Z,3.70
2018-07-13T14:50:35.755Z,5.63
2018-07-13T14:53:06.356Z,4.70
2018-07-13T14:55:34.790Z,7.63
2018-07-13T14:58:12.171Z,5.57
2018-07-13T15:00:40.289Z,4.93
2018-07-13T15:03:16.126Z,4.10
2018-07-13T15:05:49.901Z,2.07
2018-07-13T15:08:17.932Z,3.10
2018-07-13T15:10:46.202Z,3.40
2018-07-13T15:13:14.310Z,5.80
2018-07-13T15:15:43.072Z,2.27
2018-07-13T15:18:11.735Z,2.63
2018-07-13T15:20:39.869Z,4.47
2018-07-13T15:23:10.201Z,4.13
2018-07-13T15:25:38.581Z,4.77
2018-07-13T15:28:06.743Z,3.50
2018-07-13T15:30:39.639Z,4.40
2018-07-13T15:33:09.330Z,5.63
2018-07-13T15:35:37.363Z,4.87
2018-07-13T15:38:05.549Z,3.10
2018-07-13T15:40:33.778Z,4.70
2018-07-13T15:43:02.384Z,2.90
2018-07-13T15:45:30.815Z,3.20
2018-07-13T15:47:58.977Z,2.93
2018-07-13T15:50:27.219Z,2.40
2018-07-13T15:52:56.969Z,3.03
2018-07-13T15:55:30.260Z,2.47
2018-07-13T15:57:59.009Z,4.00
2018-07-13T16:00:28.727Z,2.70
2018-07-13T16:03:01.645Z,6.63
2018-07-13T16:05:31.292Z,3.63
2018-07-13T16:08:00.634Z,3.77
2018-07-13T16:10:31.465Z,7.20
2018-07-13T16:12:59.772Z,3.03
2018-07-13T16:15:28.705Z,3.80
2018-07-13T16:17:57.668Z,4.73
2018-07-13T16:20:26.276Z,3.97
2018-07-13T16:22:55.928Z,3.83
2018-07-13T16:25:24.556Z,12.73
2018-07-13T16:27:53.739Z,3.97
2018-07-13T16:30:21.962Z,3.40
2018-07-13T16:32:50.322Z,4.20
2018-07-13T16:35:19.171Z,6.83
2018-07-13T16:37:53.774Z,4.67
2018-07-13T16:40:21.928Z,5.00
2018-07-13T16:42:50.542Z,7.97
2018-07-13T16:45:18.845Z,3.20
2018-07-13T16:47:47.782Z,2.70
2018-07-13T16:50:16.043Z,4.37
2018-07-13T16:52:45.821Z,3.70
2018-07-13T16:55:14.983Z,2.80
2018-07-13T16:57:43.051Z,5.50
2018-07-13T17:00:12.201Z,1.93
2018-07-13T17:02:40.589Z,3.07
2018-07-13T17:05:09.017Z,2.63
2018-07-13T17:07:36.989Z,5.40
2018-07-13T17:10:05.417Z,2.97
2018-07-13T17:12:33.498Z,5.70
2018-07-13T17:15:01.662Z,5.13
2018-07-13T17:17:32.253Z,3.13
2018-07-13T17:20:00.585Z,2.50
2018-07-13T17:22:29.016Z,3.20
2018-07-13T17:24:57.815Z,6.43
2018-07-13T17:27:26.806Z,5.30
2018-07-13T17:29:55.378Z,4.00
2018-07-13T17:32:24.983Z,5.27
2018-07-13T17:34:53.447Z,4.63
2018-07-13T17:37:21.659Z,3.83
2018-07-13T17:39:52.505Z,3.67
2018-07-13T17:42:21.049Z,5.40
2018-07-13T17:44:51.885Z,5.57
2018-07-13T17:47:19.897Z,6.37
2018-07-13T17:49:47.937Z,4.90
2018-07-13T17:52:16.141Z,3.87
2018-07-13T17:54:44.209Z,7.83
2018-07-13T17:57:12.765Z,4.20
2018-07-13T17:59:41.008Z,4.73
2018-07-13T18:02:09.387Z,5.53
2018-07-13T18:04:37.478Z,5.97
2018-07-13T18:07:05.528Z,6.37
2018-07-13T18:09:34.437Z,5.43
2018-07-13T18:12:03.199Z,5.87
2018-07-13T18:14:31.352Z,3.77
2018-07-13T18:16:59.482Z,4.30
2018-07-13T18:19:27.631Z,3.70
2018-07-13T18:21:57.233Z,3.80
2018-07-13T18:24:25.884Z,6.00
2018-07-13T18:26:54.989Z,8.47
2018-07-13T18:29:23.126Z,3.03
2018-07-13T18:31:52.159Z,4.10
2018-07-13T18:34:20.577Z,6.80
2018-07-13T18:36:49.074Z,7.43
2018-07-13T18:39:17.329Z,4.93
2018-07-13T18:41:45.762Z,3.77
2018-07-13T18:44:13.842Z,5.20
2018-07-13T18:46:42.686Z,4.20
2018-07-13T18:49:10.652Z,5.53
2018-07-13T18:51:38.718Z,5.00
2018-07-13T18:54:06.702Z,8.30
2018-07-13T18:56:35.289Z,9.40
2018-07-13T18:59:03.702Z,5.50
2018-07-13T19:01:32.122Z,10.50
2018-07-13T19:04:00.589Z,16.73
2018-07-13T19:06:28.707Z,10.07
2018-07-13T19:08:57.067Z,12.17
2018-07-13T19:11:26.414Z,9.70
2018-07-13T19:13:54.851Z,11.53
2018-07-13T19:16:23.951Z,7.03
2018-07-13T19:18:52.311Z,15.73
2018-07-13T19:21:20.877Z,6.30
2018-07-13T19:23:49.243Z,7.10
2018-07-13T19:26:17.448Z,10.10
2018-07-13T19:28:45.468Z,7.50
2018-07-13T19:31:13.413Z,13.57
2018-07-13T19:33:41.389Z,13.37
2018-07-13T19:36:09.397Z,11.03
2018-07-13T19:38:37.345Z,12.67
2018-07-13T19:41:05.716Z,7.93
2018-07-13T19:43:33.802Z,11.10
2018-07-13T19:46:02.321Z,10.17
2018-07-13T19:48:30.456Z,8.70
2018-07-13T19:50:58.735Z,9.60
2018-07-13T19:53:28.060Z,15.60
2018-07-13T19:55:56.410Z,9.33
2018-07-13T19:58:24.698Z,13.90
2018-07-13T20:00:52.807Z,13.73
2018-07-13T20:03:21.106Z,8.93
2018-07-13T20:05:49.309Z,8.03
2018-07-13T20:08:17.355Z,7.90
2018-07-13T20:10:45.365Z,12.27
2018-07-13T20:13:13.756Z,9.60
2018-07-13T20:18:15.824Z,16.53
2018-07-13T20:20:43.864Z,14.40
2018-07-13T20:23:12.143Z,11.80
2018-07-13T20:25:40.113Z,10.00
2018-07-13T20:28:08.052Z,13.23
2018-07-13T20:30:36.005Z,15.93
2018-07-13T20:33:03.963Z,7.50
2018-07-13T20:35:32.008Z,9.10
2018-07-13T20:38:00.154Z,15.00
2018-07-13T20:40:28.336Z,8.30
2018-07-13T20:42:57.149Z,14.60
2018-07-13T20:45:25.443Z,8.03
2018-07-13T20:47:54.212Z,9.43
2018-07-13T20:50:22.265Z,8.50
2018-07-13T20:52:50.638Z,14.13
2018-07-13T20:55:18.813Z,10.53
2018-07-13T20:57:46.981Z,17.27
2018-07-13T21:00:15.049Z,9.27
2018-07-13T21:02:43.032Z,8.77
2018-07-13T21:07:45.665Z,7.63
2018-07-13T21:10:13.642Z,13.83
2018-07-13T21:12:42.182Z,8.57
2018-07-13T21:15:10.225Z,13.50
2018-07-13T21:17:38.195Z,11.80
2018-07-13T21:20:06.815Z,15.57
2018-07-13T21:22:34.735Z,17.60
2018-07-13T21:25:03.737Z,15.20
2018-07-13T21:27:31.939Z,16.80
2018-07-13T21:30:00.159Z,13.87
2018-07-13T21:32:28.970Z,17.20
2018-07-13T21:34:57.841Z,17.17
2018-07-13T21:37:26.331Z,25.53
2018-07-13T21:39:54.781Z,9.30
2018-07-13T21:42:23.163Z,14.93
2018-07-13T21:44:51.257Z,29.53
2018-07-13T21:47:19.257Z,15.80
2018-07-13T21:49:48.048Z,14.87
2018-07-13T21:52:16.747Z,19.43
2018-07-13T21:54:45.487Z,9.40
2018-07-13T21:57:13.551Z,9.93
2018-07-13T21:59:41.543Z,9.23
2018-07-13T22:02:10.173Z,14.27
2018-07-13T22:04:38.282Z,18.67
2018-07-13T22:07:06.215Z,11.30
2018-07-13T22:09:34.153Z,13.37
2018-07-13T22:12:02.156Z,14.73
2018-07-13T22:14:32.056Z,21.27
2018-07-13T22:17:00.661Z,18.77
2018-07-13T22:19:31.533Z,16.90
2018-07-13T22:22:00.386Z,8.70
2018-07-13T22:24:28.779Z,13.53
2018-07-13T22:26:57.272Z,24.43
2018-07-13T22:29:26.065Z,13.43
2018-07-13T22:31:54.596Z,11.10
2018-07-13T22:34:22.701Z,13.63
2018-07-13T22:36:51.007Z,14.40
2018-07-13T22:39:18.917Z,13.90
2018-07-13T22:41:47.356Z,9.53
2018-07-13T22:44:15.717Z,16.07
2018-07-13T22:46:43.828Z,15.13
2018-07-13T22:49:11.866Z,17.63
2018-07-13T22:51:39.826Z,17.83
2018-07-13T22:54:08.029Z,14.70
2018-07-13T22:56:35.980Z,12.60
2018-07-13T22:59:03.892Z,17.67
2018-07-13T23:01:31.900Z,14.67
2018-07-13T23:04:00.142Z,15.57
2018-07-13T23:06:28.648Z,10.47
2018-07-13T23:08:56.969Z,16.00
2018-07-13T23:11:25.118Z,16.83
2018-07-13T23:13:53.313Z,17.70
2018-07-13T23:16:21.260Z,13.77
2018-07-13T23:18:49.245Z,15.27
2018-07-13T23:21:17.338Z,16.33
2018-07-13T23:23:45.534Z,14.87
2018-07-13T23:26:13.608Z,24.17
2018-07-13T23:28:42.433Z,20.17
2018-07-13T23:31:10.453Z,21.17
2018-07-13T23:33:38.421Z,13.97
2018-07-13T23:36:06.397Z,14.37
2018-07-13T23:38:34.363Z,14.10
2018-07-13T23:41:02.353Z,23.13
2018-07-13T23:43:30.530Z,14.80
2018-07-13T23:45:58.690Z,13.23
2018-07-13T23:48:27.178Z,13.20
2018-07-13T23:50:55.484Z,11.77
2018-07-13T23:53:24.243Z,22.20
2018-07-13T23:55:52.342Z,23.90
2018-07-13T23:58:20.416Z,17.30
